Time;durP1;ratioP1;P1;durP2;ratioP2;P2;SDS_P1;SDS_P2;PMS_P1;PMS_P2;Temp;Humidity;BMP_temperature;BMP_pressure;BME280_temperature;BME280_humidity;BME280_pressure;Samples;Min_cycle;Max_cycle;Signal;HPM_P1;HPM_P2
2021/12/16 00:01:42;;;;;;;7.88;7.10;;;6.90;95.20;;;;;;5004683;28;20141;-74
2021/12/16 00:06:58;;;;;;;8.63;7.72;;;6.80;95.50;;;;;;4999055;28;20057;-73
2021/12/16 00:09:33;;;;;;;8.52;7.72;;;6.80;95.20;;;;;;5001693;28;20091;-73
2021/12/16 00:31:20;;;;;;;8.90;8.00;;;6.80;95.30;;;;;;5000904;28;20585;-72
2021/12/16 00:33:59;;;;;;;9.63;8.25;;;6.80;95.20;;;;;;5009705;28;20513;-73
2021/12/16 00:36:29;;;;;;;8.95;8.13;;;6.80;95.20;;;;;;5002308;28;20049;-73
2021/12/16 00:38:56;;;;;;;9.07;7.82;;;6.80;95.20;;;;;;5002799;28;20072;-73
2021/12/16 00:41:23;;;;;;;9.48;8.48;;;6.70;95.30;;;;;;5006336;28;20049;-73
2021/12/16 00:43:54;;;;;;;9.10;8.20;;;6.70;95.20;;;;;;5001866;28;20442;-74
2021/12/16 00:46:44;;;;;;;9.40;8.50;;;6.70;95.20;;;;;;5004257;28;20562;-73
2021/12/16 00:49:34;;;;;;;9.82;8.65;;;6.70;95.20;;;;;;5009988;28;20057;-73
2021/12/16 00:54:59;;;;;;;9.43;8.45;;;6.70;95.20;;;;;;5003152;28;20049;-73
2021/12/16 00:57:26;;;;;;;11.55;9.18;;;6.80;95.20;;;;;;5005198;28;20516;-73
2021/12/16 00:59:54;;;;;;;9.82;8.82;;;6.70;95.20;;;;;;4999755;28;20050;-73
2021/12/16 01:02:46;;;;;;;10.05;9.00;;;6.70;95.20;;;;;;5007536;28;20053;-72
2021/12/16 01:08:19;;;;;;;11.50;9.18;;;6.70;95.30;;;;;;5003927;28;20061;-73
2021/12/16 01:36:06;;;;;;;10.73;9.60;;;6.70;95.30;;;;;;4980924;28;20065;-71
2021/12/16 01:55:14;;;;;;;12.98;10.90;;;6.60;95.20;;;;;;5004671;28;20045;-72
2021/12/16 01:57:46;;;;;;;12.55;11.25;;;6.60;95.30;;;;;;5008019;28;20061;-73
2021/12/16 02:03:52;;;;;;;12.52;11.23;;;6.70;95.30;;;;;;5000612;28;20045;-72
2021/12/16 02:06:42;;;;;;;12.63;11.32;;;6.70;95.30;;;;;;5007661;28;20093;-73
2021/12/16 02:09:18;;;;;;;13.18;11.57;;;6.60;95.20;;;;;;5004573;28;20057;-72
2021/12/16 02:11:53;;;;;;;13.07;11.70;;;6.60;95.30;;;;;;5001124;28;20057;-73
2021/12/16 02:36:40;;;;;;;12.32;11.00;;;6.60;95.30;;;;;;5011761;28;20646;-73
2021/12/16 02:39:13;;;;;;;13.15;11.15;;;6.60;95.30;;;;;;5003560;28;20453;-73
2021/12/16 02:41:42;;;;;;;11.60;10.40;;;6.60;95.30;;;;;;5007205;28;20054;-72
2021/12/16 02:44:24;;;;;;;12.88;11.18;;;6.60;95.30;;;;;;5005796;28;20046;-72
2021/12/16 02:49:40;;;;;;;12.73;11.10;;;6.60;95.30;;;;;;5000673;28;20056;-72
2021/12/16 02:52:08;;;;;;;13.15;11.75;;;6.60;95.30;;;;;;5006096;28;20141;-74
2021/12/16 02:54:36;;;;;;;12.38;11.07;;;6.60;95.30;;;;;;5007991;28;20053;-73
2021/12/16 02:57:04;;;;;;;13.18;11.45;;;6.60;95.30;;;;;;5008219;28;20065;-73
2021/12/16 02:59:31;;;;;;;11.75;10.55;;;6.60;95.30;;;;;;5000670;28;20053;-74
2021/12/16 03:02:05;;;;;;;12.35;11.05;;;6.60;95.30;;;;;;5002558;28;20781;-72
2021/12/16 03:04:32;;;;;;;12.55;11.25;;;6.60;95.30;;;;;;4999397;28;20596;-73
2021/12/16 03:07:00;;;;;;;12.25;11.05;;;6.50;95.40;;;;;;5012664;28;20522;-73
2021/12/16 03:12:45;;;;;;;12.07;10.87;;;6.60;95.40;;;;;;5002004;28;20100;-73
2021/12/16 03:15:26;;;;;;;11.32;10.13;;;6.60;95.40;;;;;;5011473;28;20307;-73
2021/12/16 03:17:59;;;;;;;12.07;10.82;;;6.60;95.40;;;;;;5005133;28;20104;-72
2021/12/16 03:20:35;;;;;;;12.43;10.93;;;6.60;95.40;;;;;;5000890;28;20064;-73
2021/12/16 03:23:19;;;;;;;12.25;10.95;;;6.60;95.40;;;;;;5004004;28;20061;-74
2021/12/16 03:26:01;;;;;;;12.18;10.98;;;6.50;95.30;;;;;;5005163;28;20049;-72
2021/12/16 03:34:24;;;;;;;12.13;10.93;;;6.50;95.30;;;;;;4987291;28;20052;-73
2021/12/16 03:37:13;;;;;;;11.10;9.85;;;6.50;95.30;;;;;;5005195;28;20101;-73
2021/12/16 03:39:41;;;;;;;12.43;10.70;;;6.50;95.40;;;;;;5004161;28;20053;-73
2021/12/16 03:42:08;;;;;;;12.10;10.80;;;6.50;95.40;;;;;;5009199;28;20058;-72
2021/12/16 03:44:51;;;;;;;11.05;9.85;;;6.50;95.40;;;;;;5007702;28;20438;-72
2021/12/16 03:47:20;;;;;;;12.00;10.80;;;6.50;95.40;;;;;;4996722;28;20054;-74
2021/12/16 03:49:48;;;;;;;11.52;10.43;;;6.60;95.40;;;;;;4998448;28;20050;-72
2021/12/16 03:52:15;;;;;;;12.88;11.10;;;6.50;95.40;;;;;;5005701;28;20054;-72
2021/12/16 03:54:49;;;;;;;12.63;11.30;;;6.50;95.40;;;;;;5000674;28;20704;-73
2021/12/16 03:57:19;;;;;;;11.50;10.35;;;6.50;95.40;;;;;;4999999;28;20054;-73
2021/12/16 03:59:48;;;;;;;11.40;10.20;;;6.50;95.40;;;;;;5002601;28;20107;-73
2021/12/16 04:02:20;;;;;;;11.77;10.57;;;6.50;95.40;;;;;;5005128;28;20046;-72
2021/12/16 04:04:51;;;;;;;12.52;11.25;;;6.50;95.40;;;;;;5002989;28;20056;-73
2021/12/16 04:07:19;;;;;;;12.20;10.68;;;6.50;95.40;;;;;;5015255;28;20064;-73
2021/12/16 04:09:46;;;;;;;11.48;10.27;;;6.50;95.40;;;;;;5003625;28;20049;-72
2021/12/16 04:12:19;;;;;;;10.93;9.82;;;6.50;95.40;;;;;;4998329;28;20054;-74
2021/12/16 04:14:49;;;;;;;10.95;9.85;;;6.50;95.40;;;;;;5007797;28;20056;-73
2021/12/16 04:17:17;;;;;;;11.77;10.57;;;6.50;95.40;;;;;;5002137;28;20568;-74
2021/12/16 04:19:44;;;;;;;11.73;10.52;;;6.50;95.40;;;;;;5003510;28;20485;-73
2021/12/16 04:22:16;;;;;;;11.57;10.32;;;6.50;95.40;;;;;;5005520;28;20119;-73
2021/12/16 04:24:44;;;;;;;10.95;9.85;;;6.40;95.70;;;;;;5003926;28;21434;-74
2021/12/16 04:27:11;;;;;;;12.15;10.55;;;6.50;95.40;;;;;;5002166;28;20378;-72
2021/12/16 04:29:38;;;;;;;11.60;10.30;;;6.50;95.40;;;;;;5008470;28;20471;-72
2021/12/16 04:32:08;;;;;;;11.70;10.30;;;6.50;95.40;;;;;;5002887;28;20104;-73
2021/12/16 04:34:35;;;;;;;11.88;10.68;;;6.50;95.50;;;;;;5008854;28;20041;-72
2021/12/16 04:37:02;;;;;;;11.48;10.27;;;6.40;95.70;;;;;;5007179;28;20057;-73
2021/12/16 04:39:34;;;;;;;11.35;10.25;;;6.40;95.40;;;;;;5001060;28;20054;-71
2021/12/16 04:42:01;;;;;;;11.10;10.00;;;6.50;95.50;;;;;;5001840;28;20054;-72
2021/12/16 04:44:29;;;;;;;11.18;10.07;;;6.40;95.60;;;;;;5005129;28;20054;-73
2021/12/16 04:46:58;;;;;;;12.10;10.77;;;6.50;95.50;;;;;;5001277;28;20054;-73
2021/12/16 04:49:26;;;;;;;12.18;10.40;;;6.40;95.50;;;;;;5002899;28;20052;-73
2021/12/16 04:51:56;;;;;;;12.00;10.80;;;6.50;95.50;;;;;;5009468;28;20111;-73
2021/12/16 04:54:29;;;;;;;11.93;10.65;;;6.40;95.50;;;;;;5000643;28;20402;-73
2021/12/16 04:56:57;;;;;;;11.75;10.55;;;6.50;95.50;;;;;;5001352;28;20426;-72
2021/12/16 04:59:25;;;;;;;12.57;10.88;;;6.40;95.50;;;;;;5007000;28;20053;-72
2021/12/16 05:02:02;;;;;;;13.07;11.27;;;6.40;95.50;;;;;;5004521;28;20058;-72
2021/12/16 05:04:30;;;;;;;11.48;10.27;;;6.40;95.50;;;;;;5005564;28;20476;-73
2021/12/16 05:06:57;;;;;;;13.23;11.27;;;6.40;95.50;;;;;;5012132;28;20050;-72
2021/12/16 05:12:10;;;;;;;11.38;9.90;;;6.40;95.50;;;;;;4990413;28;20674;-73
2021/12/16 05:14:37;;;;;;;11.88;10.02;;;6.40;95.50;;;;;;5006267;28;20056;-72
2021/12/16 05:17:09;;;;;;;12.38;11.07;;;6.40;95.50;;;;;;5001650;28;20670;-73
2021/12/16 05:19:40;;;;;;;11.82;10.63;;;6.40;95.50;;;;;;5005371;28;20103;-73
2021/12/16 05:24:48;;;;;;;11.93;10.68;;;6.40;95.50;;;;;;5004137;28;20053;-73
2021/12/16 05:27:15;;;;;;;12.50;11.18;;;6.40;95.50;;;;;;5006166;28;20051;-73
2021/12/16 05:29:42;;;;;;;11.77;10.60;;;6.40;95.50;;;;;;5008546;28;20096;-73
2021/12/16 05:32:09;;;;;;;12.20;10.38;;;6.40;95.50;;;;;;4999575;28;20127;-72
2021/12/16 05:34:37;;;;;;;11.82;10.60;;;6.40;95.50;;;;;;4996142;28;20045;-73
2021/12/16 05:37:07;;;;;;;11.93;10.73;;;6.40;95.50;;;;;;5006390;28;20057;-73
2021/12/16 05:39:34;;;;;;;11.32;10.13;;;6.40;95.50;;;;;;5000981;28;20103;-72
2021/12/16 05:42:00;;;;;;;13.00;11.20;;;6.40;95.50;;;;;;5006633;28;20567;-72
2021/12/16 05:44:27;;;;;;;11.80;10.38;;;6.40;95.50;;;;;;5004740;28;20057;-74
2021/12/16 05:46:54;;;;;;;13.27;11.07;;;6.40;95.50;;;;;;4999212;28;20058;-72
2021/12/16 05:49:21;;;;;;;11.82;10.52;;;6.40;95.50;;;;;;5005176;28;20053;-73
2021/12/16 05:51:49;;;;;;;12.98;11.25;;;6.40;95.50;;;;;;5008632;28;20136;-72
2021/12/16 05:54:17;;;;;;;12.50;10.82;;;6.40;95.50;;;;;;5000558;28;20133;-72
2021/12/16 05:56:44;;;;;;;12.45;11.15;;;6.40;95.50;;;;;;5001521;28;20061;-73
2021/12/16 05:59:13;;;;;;;12.02;10.32;;;6.40;95.50;;;;;;5006227;28;20046;-72
2021/12/16 06:01:42;;;;;;;13.98;11.15;;;6.40;95.50;;;;;;5006151;28;20045;-73
2021/12/16 06:04:10;;;;;;;13.40;11.10;;;6.30;95.50;;;;;;5001559;28;20518;-72
2021/12/16 06:06:38;;;;;;;13.88;11.68;;;6.40;95.50;;;;;;5008019;28;20131;-72
2021/12/16 06:09:08;;;;;;;12.82;11.07;;;6.30;95.50;;;;;;5002318;28;20054;-73
2021/12/16 06:11:39;;;;;;;13.30;11.88;;;6.30;95.50;;;;;;5008621;28;20056;-73
2021/12/16 06:14:14;;;;;;;12.38;10.73;;;6.40;95.50;;;;;;5008022;28;20050;-72
2021/12/16 06:22:34;;;;;;;12.68;11.30;;;6.30;95.50;;;;;;5006114;28;20065;-73
2021/12/16 06:27:51;;;;;;;12.57;11.07;;;6.30;95.50;;;;;;4999657;28;20112;-73
2021/12/16 06:30:21;;;;;;;12.18;10.85;;;6.30;95.50;;;;;;5004139;28;20057;-72
2021/12/16 06:32:48;;;;;;;12.63;11.05;;;6.30;95.50;;;;;;5004124;28;20462;-72
2021/12/16 06:35:16;;;;;;;12.90;11.32;;;6.30;95.50;;;;;;5006759;28;20057;-72
2021/12/16 06:37:43;;;;;;;13.13;11.57;;;6.30;95.50;;;;;;5008449;28;20057;-71
2021/12/16 06:40:12;;;;;;;12.90;11.20;;;6.30;95.50;;;;;;5005168;28;20062;-72
2021/12/16 06:42:41;;;;;;;13.55;11.15;;;6.30;95.60;;;;;;5008827;28;20116;-72
2021/12/16 06:45:14;;;;;;;12.65;11.00;;;6.30;95.60;;;;;;5009018;28;20563;-71
2021/12/16 06:47:45;;;;;;;11.88;10.60;;;6.30;95.60;;;;;;5001789;28;20062;-74
2021/12/16 06:50:24;;;;;;;12.73;11.25;;;6.30;95.60;;;;;;5000512;28;20085;-66
2021/12/16 06:52:54;;;;;;;12.80;11.43;;;6.30;95.60;;;;;;5008628;28;20076;-66
2021/12/16 06:55:29;;;;;;;12.82;11.35;;;6.30;95.60;;;;;;5000972;28;20041;-67
2021/12/16 06:57:58;;;;;;;11.88;10.68;;;6.20;95.50;;;;;;5002083;28;20095;-66
2021/12/16 07:00:33;;;;;;;12.50;11.20;;;6.30;95.60;;;;;;5008202;28;20093;-67
2021/12/16 07:03:02;;;;;;;12.98;11.55;;;6.30;95.60;;;;;;5004933;28;20157;-67
2021/12/16 07:05:32;;;;;;;13.23;11.73;;;6.30;95.60;;;;;;5009683;28;20045;-66
2021/12/16 07:08:00;;;;;;;12.27;10.95;;;6.30;95.60;;;;;;5009251;28;20061;-66
2021/12/16 07:10:30;;;;;;;13.65;11.13;;;6.30;95.60;;;;;;5006263;28;20057;-67
2021/12/16 07:13:01;;;;;;;13.38;11.13;;;6.30;95.60;;;;;;5002922;28;20486;-67
2021/12/16 07:15:31;;;;;;;11.77;10.57;;;6.30;95.60;;;;;;5001148;28;20136;-67
2021/12/16 07:17:58;;;;;;;13.63;11.32;;;6.30;95.60;;;;;;5004914;28;20120;-66
2021/12/16 07:20:28;;;;;;;13.38;11.95;;;6.20;95.60;;;;;;5001702;28;20049;-67
2021/12/16 07:22:55;;;;;;;12.63;10.88;;;6.30;95.60;;;;;;5007371;28;20050;-67
2021/12/16 07:25:22;;;;;;;12.32;11.02;;;6.30;95.60;;;;;;5003156;28;20049;-67
2021/12/16 07:27:50;;;;;;;14.27;12.45;;;6.30;95.60;;;;;;5001680;28;20062;-67
2021/12/16 07:30:22;;;;;;;13.32;11.85;;;6.30;95.60;;;;;;5007421;28;20065;-67
2021/12/16 07:32:50;;;;;;;12.48;11.10;;;6.30;95.60;;;;;;5004432;28;20109;-67
2021/12/16 07:35:19;;;;;;;13.68;11.60;;;6.20;95.60;;;;;;5005267;28;20637;-67
2021/12/16 07:37:46;;;;;;;12.52;11.18;;;6.20;95.60;;;;;;5005385;28;20062;-67
2021/12/16 07:40:16;;;;;;;13.63;11.95;;;6.30;95.60;;;;;;5006238;28;20813;-68
2021/12/16 07:42:47;;;;;;;13.20;11.38;;;6.20;95.60;;;;;;5007470;28;20061;-67
2021/12/16 07:45:18;;;;;;;13.07;11.55;;;6.20;95.60;;;;;;5001624;28;20054;-66
2021/12/16 07:47:46;;;;;;;13.07;11.38;;;6.30;95.60;;;;;;5002986;28;20049;-67
2021/12/16 07:50:14;;;;;;;13.57;11.25;;;6.30;95.60;;;;;;5006396;28;20327;-67
2021/12/16 07:52:41;;;;;;;11.65;10.40;;;6.20;95.60;;;;;;5003127;28;20075;-67
2021/12/16 07:55:10;;;;;;;12.15;10.85;;;6.30;95.60;;;;;;5003700;28;20044;-67
2021/12/16 07:57:37;;;;;;;12.45;11.00;;;6.20;95.60;;;;;;5003683;28;20130;-67
2021/12/16 08:00:08;;;;;;;12.48;10.93;;;6.20;95.60;;;;;;5004933;28;20053;-67
2021/12/16 08:02:37;;;;;;;12.15;10.85;;;6.20;95.60;;;;;;4998551;28;20469;-67
2021/12/16 08:05:05;;;;;;;12.90;11.23;;;6.30;95.60;;;;;;5001452;28;20461;-67
2021/12/16 08:07:32;;;;;;;13.40;12.00;;;6.30;95.60;;;;;;5003349;28;20501;-67
2021/12/16 08:09:59;;;;;;;14.25;11.68;;;6.20;95.60;;;;;;4999688;28;20053;-67
2021/12/16 08:12:26;;;;;;;13.68;11.38;;;6.20;95.60;;;;;;4998177;28;20056;-67
2021/12/16 08:14:53;;;;;;;13.43;11.40;;;6.30;95.70;;;;;;4999649;28;20057;-67
2021/12/16 08:17:19;;;;;;;14.93;11.93;;;6.20;95.60;;;;;;5007299;28;20042;-67
2021/12/16 08:19:47;;;;;;;14.30;12.05;;;6.20;95.60;;;;;;5005018;28;20073;-67
2021/12/16 08:22:16;;;;;;;14.23;12.02;;;6.20;95.60;;;;;;5011254;28;20115;-67
2021/12/16 08:24:44;;;;;;;13.43;11.85;;;6.20;95.60;;;;;;5003848;28;20057;-67
2021/12/16 08:27:12;;;;;;;13.10;11.73;;;6.20;95.60;;;;;;5003603;28;20069;-67
2021/12/16 08:29:38;;;;;;;12.95;11.20;;;6.20;95.60;;;;;;5005538;28;20057;-67
2021/12/16 08:32:06;;;;;;;13.70;12.13;;;6.20;95.60;;;;;;5002153;28;21396;-68
2021/12/16 08:34:37;;;;;;;13.70;11.80;;;6.20;95.60;;;;;;5002487;28;20049;-67
2021/12/16 08:37:06;;;;;;;13.32;11.93;;;6.20;95.60;;;;;;5008048;28;20053;-67
2021/12/16 08:39:33;;;;;;;13.98;12.38;;;6.30;95.60;;;;;;5002016;28;20049;-67
2021/12/16 08:42:01;;;;;;;13.63;12.00;;;6.30;95.60;;;;;;5003072;28;20058;-66
2021/12/16 08:44:28;;;;;;;13.52;12.00;;;6.30;95.60;;;;;;5001621;28;20054;-67
2021/12/16 08:46:59;;;;;;;12.95;11.52;;;6.30;95.60;;;;;;5004914;28;20054;-67
2021/12/16 08:49:26;;;;;;;13.13;11.68;;;6.30;95.60;;;;;;5004467;28;20103;-67
2021/12/16 08:51:58;;;;;;;15.25;12.63;;;6.30;95.60;;;;;;5003106;28;20058;-67
2021/12/16 08:54:26;;;;;;;12.23;11.00;;;6.20;95.50;;;;;;5006060;28;20052;-67
2021/12/16 08:56:53;;;;;;;13.98;12.38;;;6.30;95.50;;;;;;5004674;28;20045;-67
2021/12/16 08:59:21;;;;;;;14.38;11.52;;;6.30;95.50;;;;;;5003896;28;20505;-67
2021/12/16 09:01:50;;;;;;;15.07;11.80;;;6.20;95.50;;;;;;5009611;28;20057;-67
2021/12/16 09:04:19;;;;;;;14.77;12.45;;;6.20;95.50;;;;;;4999979;28;21158;-67
2021/12/16 09:06:47;;;;;;;14.02;12.50;;;6.30;95.50;;;;;;5007920;28;20049;-67
2021/12/16 09:09:14;;;;;;;12.98;11.57;;;6.30;95.50;;;;;;5001735;28;20700;-67
2021/12/16 09:11:59;;;;;;;14.38;12.00;;;6.20;95.50;;;;;;5002019;28;20062;-67
2021/12/16 09:14:26;;;;;;;15.20;12.20;;;6.20;95.50;;;;;;4994371;28;20050;-67
2021/12/16 09:16:52;;;;;;;15.63;13.15;;;6.30;95.50;;;;;;4998711;28;20058;-67
2021/12/16 09:19:19;;;;;;;14.15;12.05;;;6.30;95.50;;;;;;5007248;28;20076;-67
2021/12/16 09:21:46;;;;;;;13.25;11.88;;;6.30;95.50;;;;;;5000794;28;20084;-67
2021/12/16 09:24:14;;;;;;;14.38;12.30;;;6.30;95.50;;;;;;5010427;28;20061;-67
2021/12/16 09:26:43;;;;;;;14.70;11.75;;;6.30;95.50;;;;;;5010107;28;20064;-67
2021/12/16 09:29:11;;;;;;;13.90;12.40;;;6.30;95.40;;;;;;5004245;28;20058;-67
2021/12/16 09:31:37;;;;;;;14.55;12.35;;;6.30;95.40;;;;;;5001493;28;20112;-67
2021/12/16 09:34:08;;;;;;;14.65;12.10;;;6.30;95.40;;;;;;5000938;28;20514;-66
2021/12/16 09:36:36;;;;;;;14.43;12.02;;;6.30;95.40;;;;;;5005035;28;20048;-67
2021/12/16 09:39:06;;;;;;;15.15;12.57;;;6.30;95.40;;;;;;5004545;28;20049;-67
2021/12/16 09:41:33;;;;;;;15.23;12.63;;;6.30;95.40;;;;;;5004200;28;20092;-66
2021/12/16 09:44:01;;;;;;;15.18;12.43;;;6.30;95.40;;;;;;5002015;28;20545;-67
2021/12/16 09:46:29;;;;;;;16.02;12.20;;;6.40;95.40;;;;;;5012214;28;20045;-67
2021/12/16 09:48:57;;;;;;;14.32;12.30;;;6.30;95.40;;;;;;5000820;28;20053;-67
2021/12/16 09:51:27;;;;;;;15.30;12.63;;;6.40;95.40;;;;;;5008631;28;20046;-66
2021/12/16 09:53:57;;;;;;;15.38;12.75;;;6.30;95.40;;;;;;5010860;28;20061;-67
2021/12/16 09:56:27;;;;;;;15.70;13.40;;;6.30;95.40;;;;;;5004289;28;20053;-66
2021/12/16 09:58:55;;;;;;;14.20;12.52;;;6.40;95.40;;;;;;5005555;28;20054;-67
2021/12/16 10:01:26;;;;;;;15.98;13.05;;;6.40;95.40;;;;;;5004269;28;20115;-66
2021/12/16 10:04:00;;;;;;;17.60;14.63;;;6.40;95.40;;;;;;5003235;28;20049;-68
2021/12/16 10:06:27;;;;;;;14.82;13.23;;;6.40;95.40;;;;;;5011136;28;20049;-68
2021/12/16 10:08:54;;;;;;;17.73;13.75;;;6.40;95.40;;;;;;5004690;28;20497;-67
2021/12/16 10:11:21;;;;;;;15.15;13.40;;;6.40;95.30;;;;;;5007150;28;20057;-68
2021/12/16 10:14:01;;;;;;;16.67;13.55;;;6.40;95.30;;;;;;5003845;28;20050;-69
2021/12/16 10:19:16;;;;;;;15.95;13.13;;;6.50;95.30;;;;;;5007449;28;20081;-68
2021/12/16 10:21:44;;;;;;;16.38;13.32;;;6.40;95.30;;;;;;5005606;28;20054;-69
2021/12/16 10:24:22;;;;;;;14.98;13.05;;;6.50;95.30;;;;;;5013149;28;20081;-69
2021/12/16 10:27:05;;;;;;;16.25;14.07;;;6.40;95.30;;;;;;5004462;28;20050;-68
2021/12/16 10:29:35;;;;;;;15.65;13.88;;;6.50;95.30;;;;;;4998881;28;20049;-68
2021/12/16 10:32:04;;;;;;;15.65;13.52;;;6.50;95.30;;;;;;5012227;28;20057;-68
2021/12/16 10:34:31;;;;;;;20.27;14.43;;;6.50;95.30;;;;;;5003074;28;20049;-67
2021/12/16 10:36:59;;;;;;;19.40;15.68;;;6.50;95.30;;;;;;5001497;28;20137;-69
2021/12/16 10:39:27;;;;;;;17.98;15.15;;;6.60;95.60;;;;;;5001638;28;20073;-69
2021/12/16 10:41:55;;;;;;;16.63;14.75;;;6.60;95.60;;;;;;5004026;28;20065;-69
2021/12/16 10:44:25;;;;;;;17.25;14.15;;;6.70;95.70;;;;;;5002097;28;20052;-69
2021/12/16 10:46:59;;;;;;;17.55;14.32;;;6.80;95.80;;;;;;5008699;28;20104;-69
2021/12/16 10:49:31;;;;;;;19.30;14.63;;;6.90;95.80;;;;;;5006602;28;20777;-69
2021/12/16 10:52:00;;;;;;;17.45;14.25;;;7.00;95.80;;;;;;5007073;28;20741;-69
2021/12/16 10:54:29;;;;;;;17.15;14.20;;;7.10;95.80;;;;;;5007371;28;20106;-69
2021/12/16 10:57:01;;;;;;;16.88;13.93;;;7.10;95.70;;;;;;5001518;28;20053;-69
2021/12/16 10:59:31;;;;;;;18.00;14.13;;;7.20;95.70;;;;;;5005628;28;20053;-69
2021/12/16 11:02:02;;;;;;;15.40;13.25;;;7.30;95.60;;;;;;5002045;28;20060;-69
2021/12/16 11:04:36;;;;;;;14.63;13.05;;;7.30;95.50;;;;;;5005810;28;20133;-69
2021/12/16 11:07:08;;;;;;;15.73;13.13;;;7.30;95.50;;;;;;5009395;28;20042;-69
2021/12/16 11:09:42;;;;;;;15.35;12.90;;;7.40;95.40;;;;;;5003136;28;20054;-68
2021/12/16 11:12:27;;;;;;;15.57;13.20;;;7.50;95.40;;;;;;5002936;28;20050;-69
2021/12/16 11:14:58;;;;;;;16.35;13.05;;;7.50;95.30;;;;;;4995123;28;20057;-69
2021/12/16 11:17:30;;;;;;;14.45;12.93;;;7.50;95.20;;;;;;4999937;28;20200;-69
2021/12/16 11:20:03;;;;;;;14.38;12.77;;;7.60;95.10;;;;;;4995372;28;20108;-69
2021/12/16 11:22:34;;;;;;;15.40;12.43;;;7.60;95.00;;;;;;4991988;28;20061;-69
2021/12/16 11:25:16;;;;;;;14.00;12.50;;;7.60;95.00;;;;;;5000030;28;20280;-68
2021/12/16 11:27:44;;;;;;;13.63;12.10;;;7.60;94.90;;;;;;5007574;28;20730;-69
2021/12/16 11:30:32;;;;;;;14.63;12.90;;;7.60;94.80;;;;;;5000342;28;20050;-69
2021/12/16 11:33:13;;;;;;;14.73;12.75;;;7.70;94.80;;;;;;5005881;28;20096;-69
2021/12/16 11:35:45;;;;;;;14.10;12.30;;;7.70;94.70;;;;;;5006422;28;20049;-69
2021/12/16 11:38:18;;;;;;;13.75;12.27;;;7.70;94.70;;;;;;5006782;28;20049;-69
2021/12/16 11:41:08;;;;;;;13.32;11.70;;;7.80;94.70;;;;;;5002709;28;20065;-69
2021/12/16 11:43:51;;;;;;;13.95;12.45;;;7.80;94.60;;;;;;4996294;28;20508;-69
2021/12/16 11:46:23;;;;;;;15.45;12.80;;;7.80;94.50;;;;;;4994764;28;20049;-69
2021/12/16 11:48:52;;;;;;;13.13;11.68;;;7.80;94.80;;;;;;4998324;28;20577;-69
2021/12/16 11:51:24;;;;;;;13.85;12.25;;;7.80;94.40;;;;;;4998289;28;20056;-69
2021/12/16 11:53:53;;;;;;;14.18;11.98;;;7.90;94.40;;;;;;5006559;28;20846;-69
2021/12/16 11:56:22;;;;;;;14.35;12.27;;;7.90;94.30;;;;;;5003546;28;20103;-69
2021/12/16 11:58:49;;;;;;;13.82;12.05;;;7.90;94.30;;;;;;5004735;28;20053;-69
2021/12/16 12:01:19;;;;;;;14.57;12.40;;;7.90;94.20;;;;;;5002525;28;20175;-69
2021/12/16 12:03:47;;;;;;;14.15;12.25;;;7.90;94.20;;;;;;5007392;28;20057;-69
2021/12/16 12:06:27;;;;;;;13.25;11.68;;;7.90;94.10;;;;;;5007770;28;20061;-70
2021/12/16 12:08:57;;;;;;;14.52;12.20;;;7.90;94.10;;;;;;5002966;28;20057;-69
2021/12/16 12:11:27;;;;;;;13.70;11.88;;;8.00;94.10;;;;;;5001322;28;20050;-70
2021/12/16 12:13:57;;;;;;;13.27;11.85;;;8.00;94.10;;;;;;5004368;28;20053;-70
2021/12/16 12:16:28;;;;;;;13.88;11.73;;;8.00;94.40;;;;;;5001999;28;20056;-70
2021/12/16 12:18:58;;;;;;;13.43;12.00;;;8.00;94.00;;;;;;4998629;28;20505;-70
2021/12/16 12:21:33;;;;;;;13.15;11.75;;;8.10;94.00;;;;;;5003774;28;20139;-69
2021/12/16 12:24:03;;;;;;;13.23;11.82;;;8.10;93.90;;;;;;5008964;28;20057;-70
2021/12/16 12:26:33;;;;;;;13.50;11.63;;;8.10;93.80;;;;;;5006666;28;20053;-70
2021/12/16 12:29:04;;;;;;;13.93;11.45;;;8.10;93.80;;;;;;5001715;28;20087;-70
2021/12/16 12:31:34;;;;;;;13.65;11.93;;;8.10;93.80;;;;;;5004749;28;20490;-70
2021/12/16 12:34:00;;;;;;;14.45;12.13;;;8.10;93.70;;;;;;5000469;28;20053;-69
2021/12/16 12:36:27;;;;;;;12.35;11.02;;;8.10;93.70;;;;;;4999103;28;20053;-70
2021/12/16 12:38:57;;;;;;;13.55;12.15;;;8.20;93.70;;;;;;5001233;28;20068;-70
2021/12/16 12:41:24;;;;;;;13.25;11.65;;;8.20;93.70;;;;;;5001119;28;20046;-69
2021/12/16 12:43:51;;;;;;;13.18;11.77;;;8.20;93.70;;;;;;5000437;28;20115;-70
2021/12/16 12:46:19;;;;;;;13.70;11.60;;;8.20;93.70;;;;;;5006109;28;20096;-70
2021/12/16 12:48:49;;;;;;;13.50;11.55;;;8.20;93.60;;;;;;5000675;28;20062;-70
2021/12/16 12:51:16;;;;;;;12.52;11.10;;;8.20;93.60;;;;;;4997408;28;20073;-70
2021/12/16 12:53:49;;;;;;;13.13;11.40;;;8.20;93.60;;;;;;4995569;28;20058;-70
2021/12/16 12:56:20;;;;;;;12.15;10.85;;;8.30;93.60;;;;;;5000556;28;20057;-70
2021/12/16 12:58:58;;;;;;;13.05;11.27;;;8.30;93.60;;;;;;5005051;28;20073;-70
2021/12/16 13:01:41;;;;;;;12.25;10.95;;;8.30;93.50;;;;;;5002853;28;20060;-70
2021/12/16 13:04:12;;;;;;;12.90;10.98;;;8.30;93.50;;;;;;5003852;28;20050;-70
2021/12/16 13:06:56;;;;;;;12.50;10.85;;;8.30;93.40;;;;;;5013875;28;20107;-70
2021/12/16 13:09:37;;;;;;;12.77;10.93;;;8.30;93.40;;;;;;5003539;28;20057;-70
2021/12/16 13:12:32;;;;;;;14.60;10.90;;;8.30;93.30;;;;;;5007432;28;20053;-70
2021/12/16 13:15:08;;;;;;;13.05;10.18;;;8.30;93.30;;;;;;5004837;28;20046;-69
2021/12/16 13:23:32;;;;;;;12.48;10.50;;;8.40;93.30;;;;;;5008602;28;20478;-70
2021/12/16 13:29:11;;;;;;;12.52;10.52;;;8.40;93.20;;;;;;5006354;28;20174;-76
2021/12/16 13:31:52;;;;;;;12.80;10.68;;;8.40;93.20;;;;;;5006773;28;20084;-74
2021/12/16 13:34:27;;;;;;;11.77;10.32;;;8.40;93.20;;;;;;5007241;28;20127;-76
2021/12/16 13:36:57;;;;;;;12.95;10.88;;;8.40;93.20;;;;;;5002757;28;20046;-74
2021/12/16 13:39:26;;;;;;;12.48;10.40;;;8.40;93.20;;;;;;5007141;28;20049;-74
2021/12/16 13:41:56;;;;;;;11.95;10.70;;;8.40;93.20;;;;;;5017334;28;20133;-75
2021/12/16 13:44:45;;;;;;;12.55;11.20;;;8.40;93.20;;;;;;5002139;28;20050;-75
2021/12/16 13:47:24;;;;;;;12.15;10.90;;;8.40;93.20;;;;;;5002200;28;20085;-75
2021/12/16 14:01:52;;;;;;;13.63;11.60;;;8.50;93.20;;;;;;4984693;28;20133;-74
2021/12/16 14:07:39;;;;;;;12.55;11.25;;;8.50;93.20;;;;;;4943317;28;20119;-76
2021/12/16 14:10:14;;;;;;;12.57;11.15;;;8.50;93.20;;;;;;4990858;28;20054;-75
2021/12/16 14:15:55;;;;;;;13.23;11.05;;;8.50;93.20;;;;;;4994730;28;20109;-70
2021/12/16 14:22:59;;;;;;;12.35;11.02;;;8.50;93.20;;;;;;5000730;28;20053;-70
2021/12/16 14:24:15;;;;;;;12.60;11.35;;;8.60;93.20;;;;;;5003994;28;20065;-70
2021/12/16 14:26:53;;;;;;;14.32;11.57;;;8.60;93.20;;;;;;5007024;28;20054;-69
2021/12/16 14:35:06;;;;;;;12.52;11.23;;;8.60;93.20;;;;;;4999993;28;20080;-70
2021/12/16 14:37:47;;;;;;;12.15;10.55;;;8.60;93.20;;;;;;5002523;28;20836;-70
2021/12/16 14:40:37;;;;;;;12.35;11.00;;;8.60;93.20;;;;;;5001240;28;20061;-70
2021/12/16 14:43:17;;;;;;;12.20;10.90;;;8.50;93.20;;;;;;5002429;28;20060;-69
2021/12/16 14:45:47;;;;;;;12.10;10.70;;;8.60;93.60;;;;;;5004183;28;20768;-75
2021/12/16 14:48:26;;;;;;;11.80;10.60;;;8.60;93.20;;;;;;4998154;28;20049;-76
2021/12/16 14:50:58;;;;;;;14.13;11.98;;;8.60;93.20;;;;;;5004974;28;20069;-75
2021/12/16 14:53:30;;;;;;;13.70;11.52;;;8.60;93.20;;;;;;5004990;28;20091;-75
2021/12/16 14:56:02;;;;;;;13.40;10.68;;;8.50;93.20;;;;;;5004520;28;20058;-76
2021/12/16 14:58:29;;;;;;;12.48;10.57;;;8.50;93.30;;;;;;4998313;28;20049;-76
2021/12/16 15:01:01;;;;;;;13.50;11.48;;;8.60;93.30;;;;;;5002346;28;20056;-74
2021/12/16 15:03:33;;;;;;;14.27;11.85;;;8.60;93.30;;;;;;5000934;28;20180;-75
2021/12/16 15:06:04;;;;;;;13.32;11.77;;;8.60;93.30;;;;;;5009336;28;20055;-74
2021/12/16 15:08:39;;;;;;;13.20;11.20;;;8.60;93.30;;;;;;5005845;28;20049;-76
2021/12/16 15:11:09;;;;;;;13.32;11.93;;;8.50;93.30;;;;;;5002759;28;20699;-76
2021/12/16 15:13:41;;;;;;;13.50;11.90;;;8.60;93.30;;;;;;5002003;28;20077;-76
2021/12/16 15:16:35;;;;;;;13.20;11.80;;;8.60;93.30;;;;;;4998733;28;20145;-76
2021/12/16 15:36:18;;;;;;;12.82;10.88;;;8.50;93.50;;;;;;4983002;28;20061;-75
2021/12/16 15:39:07;;;;;;;12.68;11.38;;;8.60;93.60;;;;;;5000727;28;20057;-77
2021/12/16 15:44:29;;;;;;;13.10;11.70;;;8.60;93.60;;;;;;4957661;28;22004;-76
2021/12/16 15:46:56;;;;;;;12.75;11.07;;;8.50;93.60;;;;;;4990244;28;20754;-79
2021/12/16 15:49:24;;;;;;;13.88;11.90;;;8.60;93.70;;;;;;5002377;28;20045;-78
2021/12/16 15:51:52;;;;;;;12.45;11.00;;;8.50;93.70;;;;;;5003455;28;20392;-75
2021/12/16 15:54:21;;;;;;;12.90;11.30;;;8.50;93.70;;;;;;4999267;28;20528;-78
2021/12/16 15:56:50;;;;;;;13.52;11.98;;;8.50;93.70;;;;;;5001865;28;20112;-77
2021/12/16 15:59:19;;;;;;;13.23;11.60;;;8.50;93.70;;;;;;5001473;28;20080;-77